Sperry, Oklahoma
Current Conditions -  °F | °C
As of 11:53 PM on Tuesday 21 Oct 2014 (Local Time) from KTUL Reporting Station
Few Clouds Few Clouds  
Wind Chill: 67°   Ceiling: Unl
Heat Index: 67°   Visibility: 10mi
Dew Point: 62°   Wind: 7mph
Humidity: 84%   Direction: 160°SSE
Pressure: 30.06"   Gusts: NA
Location:  36.3°N, 95.99°W
Report Text: KTUL 220453Z 16006KT 10SM FEW070 19/17 A3006 RMK AO2 SLP172 T01940167
Loading
Personal Weather Stations






























Interactive Weather Map
Tropical Storm Tracking
New forecast layout! Learn more

10-Day Weather Forecast

Advertisements
Track Severe Weather on mobile